sensor_id;sensor_type;location;lat;lon;timestamp;temperature;humidity
4813;DHT22;2420;51.202;8.698;2022-12-11T00:02:27;-4.00;1.00
4813;DHT22;2420;51.202;8.698;2022-12-11T00:04:53;-4.10;1.00
4813;DHT22;2420;51.202;8.698;2022-12-11T00:07:18;-4.00;1.00
4813;DHT22;2420;51.202;8.698;2022-12-11T00:09:44;-3.90;1.00
4813;DHT22;2420;51.202;8.698;2022-12-11T00:12:09;-4.00;1.00
4813;DHT22;2420;51.202;8.698;2022-12-11T00:14:35;-4.00;1.00
4813;DHT22;2420;51.202;8.698;2022-12-11T00:17:00;-4.00;1.00
4813;DHT22;2420;51.202;8.698;2022-12-11T00:19:26;-4.10;1.00
4813;DHT22;2420;51.202;8.698;2022-12-11T00:21:51;-3.80;1.00
4813;DHT22;2420;51.202;8.698;2022-12-11T00:24:17;-4.00;1.00
4813;DHT22;2420;51.202;8.698;2022-12-11T00:26:42;-4.00;1.00
4813;DHT22;2420;51.202;8.698;2022-12-11T00:29:10;-3.90;1.00
4813;DHT22;2420;51.202;8.698;2022-12-11T00:31:42;-4.00;1.00
4813;DHT22;2420;51.202;8.698;2022-12-11T00:34:09;-3.70;1.00
4813;DHT22;2420;51.202;8.698;2022-12-11T00:36:36;-3.90;1.00
4813;DHT22;2420;51.202;8.698;2022-12-11T00:39:03;-3.80;1.00
4813;DHT22;2420;51.202;8.698;2022-12-11T00:41:29;-3.60;1.00
4813;DHT22;2420;51.202;8.698;2022-12-11T00:43:55;-3.60;1.00
4813;DHT22;2420;51.202;8.698;2022-12-11T00:46:20;-3.60;1.00
4813;DHT22;2420;51.202;8.698;2022-12-11T00:48:46;-3.60;1.00
4813;DHT22;2420;51.202;8.698;2022-12-11T00:51:14;-3.70;1.00
4813;DHT22;2420;51.202;8.698;2022-12-11T00:53:40;-3.50;1.00
4813;DHT22;2420;51.202;8.698;2022-12-11T00:56:14;-3.50;1.00
4813;DHT22;2420;51.202;8.698;2022-12-11T00:58:40;-3.60;1.00
4813;DHT22;2420;51.202;8.698;2022-12-11T01:01:08;-3.50;1.00
4813;DHT22;2420;51.202;8.698;2022-12-11T01:03:34;-3.50;1.00
4813;DHT22;2420;51.202;8.698;2022-12-11T01:06:00;-3.60;1.00
4813;DHT22;2420;51.202;8.698;2022-12-11T01:08:25;-3.40;1.00
4813;DHT22;2420;51.202;8.698;2022-12-11T01:10:51;-3.40;1.00
4813;DHT22;2420;51.202;8.698;2022-12-11T01:13:24;-3.30;1.00
4813;DHT22;2420;51.202;8.698;2022-12-11T01:15:50;-3.50;1.00
4813;DHT22;2420;51.202;8.698;2022-12-11T01:18:15;-3.60;1.00
4813;DHT22;2420;51.202;8.698;2022-12-11T01:20:41;-3.40;1.00
4813;DHT22;2420;51.202;8.698;2022-12-11T01:23:08;-3.40;1.00
4813;DHT22;2420;51.202;8.698;2022-12-11T01:25:35;-3.30;1.00
4813;DHT22;2420;51.202;8.698;2022-12-11T01:28:02;-3.50;1.00
4813;DHT22;2420;51.202;8.698;2022-12-11T01:30:28;-3.60;1.00
4813;DHT22;2420;51.202;8.698;2022-12-11T01:32:53;-3.30;1.00
4813;DHT22;2420;51.202;8.698;2022-12-11T01:35:19;-3.50;1.00
4813;DHT22;2420;51.202;8.698;2022-12-11T01:37:45;-3.60;1.00
4813;DHT22;2420;51.202;8.698;2022-12-11T01:40:16;-3.50;1.00
4813;DHT22;2420;51.202;8.698;2022-12-11T01:42:42;-3.60;1.00
4813;DHT22;2420;51.202;8.698;2022-12-11T01:48:03;-3.50;1.00
4813;DHT22;2420;51.202;8.698;2022-12-11T01:50:32;-3.40;1.00
4813;DHT22;2420;51.202;8.698;2022-12-11T01:52:59;-3.50;1.00
4813;DHT22;2420;51.202;8.698;2022-12-11T01:55:25;-3.50;1.00
4813;DHT22;2420;51.202;8.698;2022-12-11T01:57:51;-3.50;1.00
4813;DHT22;2420;51.202;8.698;2022-12-11T02:00:19;-3.60;1.00
4813;DHT22;2420;51.202;8.698;2022-12-11T02:02:45;-3.50;1.00
4813;DHT22;2420;51.202;8.698;2022-12-11T02:05:10;-3.40;1.00
4813;DHT22;2420;51.202;8.698;2022-12-11T02:07:41;-3.30;1.00
4813;DHT22;2420;51.202;8.698;2022-12-11T02:10:07;-3.20;1.00
4813;DHT22;2420;51.202;8.698;2022-12-11T02:12:42;-3.50;1.00
4813;DHT22;2420;51.202;8.698;2022-12-11T02:20:46;-3.50;1.00
4813;DHT22;2420;51.202;8.698;2022-12-11T02:26:21;-3.30;1.00
4813;DHT22;2420;51.202;8.698;2022-12-11T02:28:57;-3.40;1.00
4813;DHT22;2420;51.202;8.698;2022-12-11T02:31:40;-3.20;1.00
4813;DHT22;2420;51.202;8.698;2022-12-11T02:34:26;-3.20;1.00
4813;DHT22;2420;51.202;8.698;2022-12-11T02:36:56;-3.50;1.00
4813;DHT22;2420;51.202;8.698;2022-12-11T02:39:24;-3.40;1.00
4813;DHT22;2420;51.202;8.698;2022-12-11T02:41:51;-3.60;1.00
4813;DHT22;2420;51.202;8.698;2022-12-11T02:44:24;-3.40;1.00
4813;DHT22;2420;51.202;8.698;2022-12-11T02:46:51;-3.30;1.00
4813;DHT22;2420;51.202;8.698;2022-12-11T02:49:19;-3.40;1.00
4813;DHT22;2420;51.202;8.698;2022-12-11T02:51:46;-3.40;1.00
4813;DHT22;2420;51.202;8.698;2022-12-11T02:54:17;-3.40;1.00
4813;DHT22;2420;51.202;8.698;2022-12-11T02:59:41;-3.30;1.00
4813;DHT22;2420;51.202;8.698;2022-12-11T03:02:07;-3.20;1.00
4813;DHT22;2420;51.202;8.698;2022-12-11T03:04:34;-3.30;1.00
4813;DHT22;2420;51.202;8.698;2022-12-11T03:07:09;-3.20;1.00
4813;DHT22;2420;51.202;8.698;2022-12-11T03:09:41;-3.20;1.00
4813;DHT22;2420;51.202;8.698;2022-12-11T03:12:08;-3.30;1.00
4813;DHT22;2420;51.202;8.698;2022-12-11T03:14:35;-3.20;1.00
4813;DHT22;2420;51.202;8.698;2022-12-11T03:17:10;-3.10;1.00
4813;DHT22;2420;51.202;8.698;2022-12-11T03:19:41;-3.30;1.00
4813;DHT22;2420;51.202;8.698;2022-12-11T03:22:15;-3.10;1.00
4813;DHT22;2420;51.202;8.698;2022-12-11T03:24:46;-2.80;1.00
4813;DHT22;2420;51.202;8.698;2022-12-11T03:27:30;-3.10;1.00
4813;DHT22;2420;51.202;8.698;2022-12-11T03:30:02;-2.90;1.00
4813;DHT22;2420;51.202;8.698;2022-12-11T03:32:32;-3.10;1.00
4813;DHT22;2420;51.202;8.698;2022-12-11T03:37:34;-3.00;1.00
4813;DHT22;2420;51.202;8.698;2022-12-11T03:40:05;-3.30;1.00
4813;DHT22;2420;51.202;8.698;2022-12-11T03:42:33;-3.20;1.00
4813;DHT22;2420;51.202;8.698;2022-12-11T03:45:00;-3.00;1.00
4813;DHT22;2420;51.202;8.698;2022-12-11T03:47:27;-3.10;1.00
4813;DHT22;2420;51.202;8.698;2022-12-11T03:49:55;-3.10;1.00
4813;DHT22;2420;51.202;8.698;2022-12-11T03:52:25;-3.00;1.00
4813;DHT22;2420;51.202;8.698;2022-12-11T03:54:54;-3.20;1.00
4813;DHT22;2420;51.202;8.698;2022-12-11T03:57:25;-3.20;1.00
4813;DHT22;2420;51.202;8.698;2022-12-11T03:59:52;-3.00;1.00
4813;DHT22;2420;51.202;8.698;2022-12-11T04:02:18;-2.90;1.00
4813;DHT22;2420;51.202;8.698;2022-12-11T04:04:43;-3.10;1.00
4813;DHT22;2420;51.202;8.698;2022-12-11T04:07:09;-2.80;1.00
4813;DHT22;2420;51.202;8.698;2022-12-11T04:09:35;-2.90;1.00
4813;DHT22;2420;51.202;8.698;2022-12-11T04:12:01;-3.00;1.00
4813;DHT22;2420;51.202;8.698;2022-12-11T04:14:26;-3.00;1.00
4813;DHT22;2420;51.202;8.698;2022-12-11T04:17:11;-2.80;1.00
4813;DHT22;2420;51.202;8.698;2022-12-11T04:19:36;-3.10;1.00
4813;DHT22;2420;51.202;8.698;2022-12-11T04:22:20;-3.00;1.00
4813;DHT22;2420;51.202;8.698;2022-12-11T04:25:06;-2.90;1.00
4813;DHT22;2420;51.202;8.698;2022-12-11T04:27:32;-2.90;1.00
4813;DHT22;2420;51.202;8.698;2022-12-11T04:30:16;-2.60;1.00
4813;DHT22;2420;51.202;8.698;2022-12-11T04:32:43;-2.70;1.00
4813;DHT22;2420;51.202;8.698;2022-12-11T04:35:09;-2.80;1.00
4813;DHT22;2420;51.202;8.698;2022-12-11T04:37:36;-2.80;1.00
4813;DHT22;2420;51.202;8.698;2022-12-11T04:40:03;-2.60;1.00
4813;DHT22;2420;51.202;8.698;2022-12-11T04:42:29;-2.70;1.00
4813;DHT22;2420;51.202;8.698;2022-12-11T04:44:55;-2.80;1.00
4813;DHT22;2420;51.202;8.698;2022-12-11T04:47:20;-2.90;1.00
4813;DHT22;2420;51.202;8.698;2022-12-11T04:49:46;-2.60;1.00
4813;DHT22;2420;51.202;8.698;2022-12-11T04:52:12;-2.70;1.00
4813;DHT22;2420;51.202;8.698;2022-12-11T04:54:37;-2.80;1.00
4813;DHT22;2420;51.202;8.698;2022-12-11T04:57:03;-2.90;1.00
4813;DHT22;2420;51.202;8.698;2022-12-11T04:59:28;-2.90;1.00
4813;DHT22;2420;51.202;8.698;2022-12-11T05:01:55;-2.60;1.00
4813;DHT22;2420;51.202;8.698;2022-12-11T05:04:21;-3.00;1.00
4813;DHT22;2420;51.202;8.698;2022-12-11T05:06:48;-2.80;1.00
4813;DHT22;2420;51.202;8.698;2022-12-11T05:09:14;-2.60;1.00
4813;DHT22;2420;51.202;8.698;2022-12-11T05:11:39;-2.70;1.00
4813;DHT22;2420;51.202;8.698;2022-12-11T05:14:05;-2.70;1.00
4813;DHT22;2420;51.202;8.698;2022-12-11T05:16:31;-2.80;1.00
4813;DHT22;2420;51.202;8.698;2022-12-11T05:18:56;-2.70;1.00
4813;DHT22;2420;51.202;8.698;2022-12-11T05:21:22;-2.70;1.00
4813;DHT22;2420;51.202;8.698;2022-12-11T05:23:47;-2.70;1.00
4813;DHT22;2420;51.202;8.698;2022-12-11T05:26:16;-3.00;1.00
4813;DHT22;2420;51.202;8.698;2022-12-11T05:28:42;-2.90;1.00
4813;DHT22;2420;51.202;8.698;2022-12-11T05:31:12;-2.70;1.00
4813;DHT22;2420;51.202;8.698;2022-12-11T05:33:38;-3.00;1.00
4813;DHT22;2420;51.202;8.698;2022-12-11T05:36:03;-2.80;1.00
4813;DHT22;2420;51.202;8.698;2022-12-11T05:38:29;-2.80;1.00
4813;DHT22;2420;51.202;8.698;2022-12-11T05:41:04;-2.90;1.00
4813;DHT22;2420;51.202;8.698;2022-12-11T05:43:32;-2.60;1.00
4813;DHT22;2420;51.202;8.698;2022-12-11T05:48:38;-2.60;1.00
4813;DHT22;2420;51.202;8.698;2022-12-11T05:51:05;-2.70;1.00
4813;DHT22;2420;51.202;8.698;2022-12-11T05:53:31;-2.70;1.00
4813;DHT22;2420;51.202;8.698;2022-12-11T05:56:04;-2.80;1.00
4813;DHT22;2420;51.202;8.698;2022-12-11T05:58:31;-2.70;1.00
4813;DHT22;2420;51.202;8.698;2022-12-11T06:00:57;-2.90;1.00
4813;DHT22;2420;51.202;8.698;2022-12-11T06:03:23;-2.90;1.00
4813;DHT22;2420;51.202;8.698;2022-12-11T06:05:48;-2.90;1.00
4813;DHT22;2420;51.202;8.698;2022-12-11T06:08:14;-2.80;1.00
4813;DHT22;2420;51.202;8.698;2022-12-11T06:10:46;-2.90;1.00
4813;DHT22;2420;51.202;8.698;2022-12-11T06:13:12;-2.90;1.00
4813;DHT22;2420;51.202;8.698;2022-12-11T06:15:41;-2.90;1.00
4813;DHT22;2420;51.202;8.698;2022-12-11T06:18:07;-2.60;1.00
4813;DHT22;2420;51.202;8.698;2022-12-11T06:20:34;-2.90;1.00
4813;DHT22;2420;51.202;8.698;2022-12-11T06:23:00;-3.00;1.00
4813;DHT22;2420;51.202;8.698;2022-12-11T06:25:27;-3.00;1.00
4813;DHT22;2420;51.202;8.698;2022-12-11T06:27:52;-3.00;1.00
4813;DHT22;2420;51.202;8.698;2022-12-11T06:30:18;-2.90;1.00
4813;DHT22;2420;51.202;8.698;2022-12-11T06:32:44;-2.60;1.00
4813;DHT22;2420;51.202;8.698;2022-12-11T06:35:10;-2.80;1.00
4813;DHT22;2420;51.202;8.698;2022-12-11T06:37:36;-2.60;1.00
4813;DHT22;2420;51.202;8.698;2022-12-11T06:40:03;-2.70;1.00
4813;DHT22;2420;51.202;8.698;2022-12-11T06:42:30;-2.90;1.00
4813;DHT22;2420;51.202;8.698;2022-12-11T06:44:56;-2.70;1.00
4813;DHT22;2420;51.202;8.698;2022-12-11T06:47:27;-2.70;1.00
4813;DHT22;2420;51.202;8.698;2022-12-11T06:49:53;-2.80;1.00
4813;DHT22;2420;51.202;8.698;2022-12-11T06:52:20;-2.80;1.00
4813;DHT22;2420;51.202;8.698;2022-12-11T06:54:45;-2.70;1.00
4813;DHT22;2420;51.202;8.698;2022-12-11T06:57:11;-2.50;1.00
4813;DHT22;2420;51.202;8.698;2022-12-11T06:59:36;-2.90;1.00
4813;DHT22;2420;51.202;8.698;2022-12-11T07:02:03;-2.80;1.00
4813;DHT22;2420;51.202;8.698;2022-12-11T07:04:29;-2.50;1.00
4813;DHT22;2420;51.202;8.698;2022-12-11T07:06:55;-2.60;1.00
4813;DHT22;2420;51.202;8.698;2022-12-11T07:09:22;-2.50;1.00
4813;DHT22;2420;51.202;8.698;2022-12-11T07:11:51;-2.70;1.00
4813;DHT22;2420;51.202;8.698;2022-12-11T07:14:17;-2.70;1.00
4813;DHT22;2420;51.202;8.698;2022-12-11T07:16:43;-2.70;1.00
4813;DHT22;2420;51.202;8.698;2022-12-11T07:19:09;-2.80;1.00
4813;DHT22;2420;51.202;8.698;2022-12-11T07:21:35;-2.70;1.00
4813;DHT22;2420;51.202;8.698;2022-12-11T07:24:01;-2.80;1.00
4813;DHT22;2420;51.202;8.698;2022-12-11T07:26:26;-2.50;1.00
4813;DHT22;2420;51.202;8.698;2022-12-11T07:28:56;-2.50;1.00
4813;DHT22;2420;51.202;8.698;2022-12-11T07:31:23;-2.60;1.00
4813;DHT22;2420;51.202;8.698;2022-12-11T07:34:02;-2.70;1.00
4813;DHT22;2420;51.202;8.698;2022-12-11T07:36:29;-2.50;1.00
4813;DHT22;2420;51.202;8.698;2022-12-11T07:38:55;-2.60;1.00
4813;DHT22;2420;51.202;8.698;2022-12-11T07:41:22;-2.40;1.00
4813;DHT22;2420;51.202;8.698;2022-12-11T07:43:48;-2.70;1.00
4813;DHT22;2420;51.202;8.698;2022-12-11T07:46:16;-2.40;1.00
4813;DHT22;2420;51.202;8.698;2022-12-11T07:48:43;-2.70;1.00
4813;DHT22;2420;51.202;8.698;2022-12-11T07:51:16;-2.50;1.00
4813;DHT22;2420;51.202;8.698;2022-12-11T07:53:47;-2.50;1.00
4813;DHT22;2420;51.202;8.698;2022-12-11T07:56:14;-2.40;1.00
4813;DHT22;2420;51.202;8.698;2022-12-11T07:58:40;-2.50;1.00
4813;DHT22;2420;51.202;8.698;2022-12-11T08:01:10;-2.50;1.00
4813;DHT22;2420;51.202;8.698;2022-12-11T08:03:37;-2.30;1.00
4813;DHT22;2420;51.202;8.698;2022-12-11T08:06:03;-2.40;1.00
4813;DHT22;2420;51.202;8.698;2022-12-11T08:08:29;-2.30;1.00
4813;DHT22;2420;51.202;8.698;2022-12-11T08:10:55;-2.40;1.00
4813;DHT22;2420;51.202;8.698;2022-12-11T08:13:20;-2.20;1.00
4813;DHT22;2420;51.202;8.698;2022-12-11T08:15:46;-2.30;1.00
4813;DHT22;2420;51.202;8.698;2022-12-11T08:18:11;-2.40;1.00
4813;DHT22;2420;51.202;8.698;2022-12-11T08:20:37;-2.20;1.00
4813;DHT22;2420;51.202;8.698;2022-12-11T08:23:03;-2.30;1.00
4813;DHT22;2420;51.202;8.698;2022-12-11T08:25:29;-2.20;1.00
4813;DHT22;2420;51.202;8.698;2022-12-11T08:27:55;-2.30;1.00
4813;DHT22;2420;51.202;8.698;2022-12-11T08:30:20;-2.30;1.00
4813;DHT22;2420;51.202;8.698;2022-12-11T08:32:46;-2.20;1.00
4813;DHT22;2420;51.202;8.698;2022-12-11T08:35:11;-2.10;1.00
4813;DHT22;2420;51.202;8.698;2022-12-11T08:37:37;-2.30;1.00
4813;DHT22;2420;51.202;8.698;2022-12-11T08:40:03;-2.30;1.00
4813;DHT22;2420;51.202;8.698;2022-12-11T08:42:28;-2.30;1.00
4813;DHT22;2420;51.202;8.698;2022-12-11T08:44:54;-2.30;1.00
4813;DHT22;2420;51.202;8.698;2022-12-11T08:47:19;-2.20;1.00
4813;DHT22;2420;51.202;8.698;2022-12-11T08:49:45;-2.10;1.00
4813;DHT22;2420;51.202;8.698;2022-12-11T08:52:10;-2.30;1.00
4813;DHT22;2420;51.202;8.698;2022-12-11T08:54:37;-2.10;1.00
4813;DHT22;2420;51.202;8.698;2022-12-11T08:57:03;-2.20;1.00
4813;DHT22;2420;51.202;8.698;2022-12-11T08:59:28;-2.10;1.00
4813;DHT22;2420;51.202;8.698;2022-12-11T09:01:54;-2.10;1.00
4813;DHT22;2420;51.202;8.698;2022-12-11T09:04:27;-2.30;1.00
4813;DHT22;2420;51.202;8.698;2022-12-11T09:06:52;-2.00;1.00
4813;DHT22;2420;51.202;8.698;2022-12-11T09:09:18;-1.90;1.00
4813;DHT22;2420;51.202;8.698;2022-12-11T09:11:43;-2.00;1.00
4813;DHT22;2420;51.202;8.698;2022-12-11T09:14:09;-2.20;1.00
4813;DHT22;2420;51.202;8.698;2022-12-11T09:16:37;-2.00;1.00
4813;DHT22;2420;51.202;8.698;2022-12-11T09:19:06;-2.00;1.00
4813;DHT22;2420;51.202;8.698;2022-12-11T09:21:32;-1.90;1.00
4813;DHT22;2420;51.202;8.698;2022-12-11T09:23:59;-1.90;1.00
4813;DHT22;2420;51.202;8.698;2022-12-11T09:26:26;-1.80;1.00
4813;DHT22;2420;51.202;8.698;2022-12-11T09:28:52;-1.80;1.00
4813;DHT22;2420;51.202;8.698;2022-12-11T09:31:30;-2.00;1.00
4813;DHT22;2420;51.202;8.698;2022-12-11T09:34:04;-1.80;1.00
4813;DHT22;2420;51.202;8.698;2022-12-11T09:36:30;-1.80;1.00
4813;DHT22;2420;51.202;8.698;2022-12-11T09:38:59;-1.80;1.00
4813;DHT22;2420;51.202;8.698;2022-12-11T09:41:34;-1.70;1.00
4813;DHT22;2420;51.202;8.698;2022-12-11T09:46:27;-1.60;1.00
4813;DHT22;2420;51.202;8.698;2022-12-11T09:48:53;-1.70;1.00
4813;DHT22;2420;51.202;8.698;2022-12-11T09:51:57;-1.70;1.00
4813;DHT22;2420;51.202;8.698;2022-12-11T09:54:23;-1.50;1.00
4813;DHT22;2420;51.202;8.698;2022-12-11T09:57:16;-1.70;1.00
4813;DHT22;2420;51.202;8.698;2022-12-11T10:02:53;-1.70;1.00
4813;DHT22;2420;51.202;8.698;2022-12-11T10:05:38;-1.80;1.00
4813;DHT22;2420;51.202;8.698;2022-12-11T10:16:05;-1.70;1.00
4813;DHT22;2420;51.202;8.698;2022-12-11T10:18:37;-1.70;1.00
4813;DHT22;2420;51.202;8.698;2022-12-11T10:21:03;-1.60;1.00
4813;DHT22;2420;51.202;8.698;2022-12-11T10:23:35;-1.60;1.00
4813;DHT22;2420;51.202;8.698;2022-12-11T10:26:17;-1.40;1.00
4813;DHT22;2420;51.202;8.698;2022-12-11T10:28:43;-1.50;1.00
4813;DHT22;2420;51.202;8.698;2022-12-11T10:31:21;-1.40;1.00
4813;DHT22;2420;51.202;8.698;2022-12-11T10:36:30;-1.50;1.00
4813;DHT22;2420;51.202;8.698;2022-12-11T10:38:56;-1.50;1.00
4813;DHT22;2420;51.202;8.698;2022-12-11T10:41:31;-1.40;1.00
4813;DHT22;2420;51.202;8.698;2022-12-11T10:43:57;-1.60;1.00
4813;DHT22;2420;51.202;8.698;2022-12-11T10:46:26;-1.40;1.00
4813;DHT22;2420;51.202;8.698;2022-12-11T10:49:02;-1.30;1.00
4813;DHT22;2420;51.202;8.698;2022-12-11T10:54:07;-1.30;1.00
4813;DHT22;2420;51.202;8.698;2022-12-11T10:56:44;-1.40;1.00
4813;DHT22;2420;51.202;8.698;2022-12-11T10:59:23;-1.40;1.00
4813;DHT22;2420;51.202;8.698;2022-12-11T11:01:50;-1.30;1.00
4813;DHT22;2420;51.202;8.698;2022-12-11T11:04:22;-1.20;1.00
4813;DHT22;2420;51.202;8.698;2022-12-11T11:07:13;-1.40;1.00
4813;DHT22;2420;51.202;8.698;2022-12-11T11:09:39;-1.30;1.00
4813;DHT22;2420;51.202;8.698;2022-12-11T11:12:21;-1.10;1.00
4813;DHT22;2420;51.202;8.698;2022-12-11T11:15:01;-1.20;1.00
4813;DHT22;2420;51.202;8.698;2022-12-11T11:17:30;-1.30;1.00
4813;DHT22;2420;51.202;8.698;2022-12-11T11:20:00;-1.40;1.00
4813;DHT22;2420;51.202;8.698;2022-12-11T11:22:30;-1.10;1.00
4813;DHT22;2420;51.202;8.698;2022-12-11T11:24:57;-1.00;1.00
4813;DHT22;2420;51.202;8.698;2022-12-11T11:27:33;-1.00;1.00
4813;DHT22;2420;51.202;8.698;2022-12-11T11:30:03;-1.10;1.00
4813;DHT22;2420;51.202;8.698;2022-12-11T11:32:33;-1.10;1.00
4813;DHT22;2420;51.202;8.698;2022-12-11T11:35:14;-1.00;1.00
4813;DHT22;2420;51.202;8.698;2022-12-11T11:37:45;-1.20;1.00
4813;DHT22;2420;51.202;8.698;2022-12-11T11:40:30;-1.20;1.00
4813;DHT22;2420;51.202;8.698;2022-12-11T11:43:16;-1.30;1.00
4813;DHT22;2420;51.202;8.698;2022-12-11T11:46:07;-1.40;1.00
4813;DHT22;2420;51.202;8.698;2022-12-11T11:48:54;-1.30;1.00
4813;DHT22;2420;51.202;8.698;2022-12-11T11:51:28;-1.30;1.00
4813;DHT22;2420;51.202;8.698;2022-12-11T11:53:57;-1.20;1.00
4813;DHT22;2420;51.202;8.698;2022-12-11T11:56:31;-1.20;1.00
4813;DHT22;2420;51.202;8.698;2022-12-11T11:59:10;-1.10;1.00
4813;DHT22;2420;51.202;8.698;2022-12-11T12:01:40;-1.30;1.00
4813;DHT22;2420;51.202;8.698;2022-12-11T12:04:06;-0.90;1.00
4813;DHT22;2420;51.202;8.698;2022-12-11T12:06:54;-0.90;1.00
4813;DHT22;2420;51.202;8.698;2022-12-11T12:13:05;-1.10;1.00
4813;DHT22;2420;51.202;8.698;2022-12-11T12:27:22;-1.00;1.00
4813;DHT22;2420;51.202;8.698;2022-12-11T12:32:40;-0.60;1.00
4813;DHT22;2420;51.202;8.698;2022-12-11T12:35:32;-0.60;1.00
4813;DHT22;2420;51.202;8.698;2022-12-11T12:38:13;-0.80;1.00
4813;DHT22;2420;51.202;8.698;2022-12-11T12:41:16;-0.80;1.00
4813;DHT22;2420;51.202;8.698;2022-12-11T12:44:12;-0.80;1.00
4813;DHT22;2420;51.202;8.698;2022-12-11T12:47:10;-0.90;1.00
4813;DHT22;2420;51.202;8.698;2022-12-11T12:49:42;-0.90;1.00
4813;DHT22;2420;51.202;8.698;2022-12-11T12:52:32;-0.70;1.00
4813;DHT22;2420;51.202;8.698;2022-12-11T12:55:17;-0.90;1.00
4813;DHT22;2420;51.202;8.698;2022-12-11T12:57:55;-0.90;1.00
4813;DHT22;2420;51.202;8.698;2022-12-11T13:02:54;-0.70;1.00
4813;DHT22;2420;51.202;8.698;2022-12-11T13:05:26;-0.80;1.00
4813;DHT22;2420;51.202;8.698;2022-12-11T13:07:55;-0.80;1.00
4813;DHT22;2420;51.202;8.698;2022-12-11T13:10:30;-0.90;1.00
4813;DHT22;2420;51.202;8.698;2022-12-11T13:12:56;-0.70;1.00
4813;DHT22;2420;51.202;8.698;2022-12-11T13:17:51;-0.50;1.00
4813;DHT22;2420;51.202;8.698;2022-12-11T13:20:23;-0.60;1.00
4813;DHT22;2420;51.202;8.698;2022-12-11T13:23:09;-0.70;1.00
4813;DHT22;2420;51.202;8.698;2022-12-11T13:25:57;-0.60;1.00
4813;DHT22;2420;51.202;8.698;2022-12-11T13:28:33;-0.70;1.00
4813;DHT22;2420;51.202;8.698;2022-12-11T13:33:47;-0.70;1.00
4813;DHT22;2420;51.202;8.698;2022-12-11T13:36:16;-0.60;1.00
4813;DHT22;2420;51.202;8.698;2022-12-11T13:38:54;-0.50;1.00
4813;DHT22;2420;51.202;8.698;2022-12-11T13:41:20;-0.80;1.00
4813;DHT22;2420;51.202;8.698;2022-12-11T13:43:48;-0.60;1.00
4813;DHT22;2420;51.202;8.698;2022-12-11T13:46:19;-0.50;1.00
4813;DHT22;2420;51.202;8.698;2022-12-11T13:49:06;-0.60;1.00
4813;DHT22;2420;51.202;8.698;2022-12-11T13:51:35;-0.70;1.00
4813;DHT22;2420;51.202;8.698;2022-12-11T13:56:31;-0.60;1.00
4813;DHT22;2420;51.202;8.698;2022-12-11T13:58:58;-0.90;1.00
4813;DHT22;2420;51.202;8.698;2022-12-11T14:01:29;-0.80;1.00
4813;DHT22;2420;51.202;8.698;2022-12-11T14:04:00;-0.90;1.00
4813;DHT22;2420;51.202;8.698;2022-12-11T14:06:27;-0.60;1.00
4813;DHT22;2420;51.202;8.698;2022-12-11T14:08:58;-0.60;1.00
4813;DHT22;2420;51.202;8.698;2022-12-11T14:11:33;-0.60;1.00
4813;DHT22;2420;51.202;8.698;2022-12-11T14:14:02;-0.60;1.00
4813;DHT22;2420;51.202;8.698;2022-12-11T14:16:28;-0.70;1.00
4813;DHT22;2420;51.202;8.698;2022-12-11T14:19:01;-0.70;1.00
4813;DHT22;2420;51.202;8.698;2022-12-11T14:21:28;-0.90;1.00
4813;DHT22;2420;51.202;8.698;2022-12-11T14:23:58;-0.60;1.00
4813;DHT22;2420;51.202;8.698;2022-12-11T14:26:29;-0.80;1.00
4813;DHT22;2420;51.202;8.698;2022-12-11T14:28:55;-0.60;1.00
4813;DHT22;2420;51.202;8.698;2022-12-11T14:31:31;-0.60;1.00
4813;DHT22;2420;51.202;8.698;2022-12-11T14:36:34;-1.00;1.00
4813;DHT22;2420;51.202;8.698;2022-12-11T14:39:02;-0.80;1.00
4813;DHT22;2420;51.202;8.698;2022-12-11T14:44:20;-0.80;1.00
4813;DHT22;2420;51.202;8.698;2022-12-11T14:47:13;-0.80;1.00
4813;DHT22;2420;51.202;8.698;2022-12-11T14:52:43;-0.90;1.00
4813;DHT22;2420;51.202;8.698;2022-12-11T14:55:18;-0.80;1.00
4813;DHT22;2420;51.202;8.698;2022-12-11T14:57:47;-0.70;1.00
4813;DHT22;2420;51.202;8.698;2022-12-11T15:05:26;-0.70;1.00
4813;DHT22;2420;51.202;8.698;2022-12-11T15:08:17;-0.80;1.00
4813;DHT22;2420;51.202;8.698;2022-12-11T15:11:02;-0.70;1.00
4813;DHT22;2420;51.202;8.698;2022-12-11T15:13:29;-0.80;1.00
4813;DHT22;2420;51.202;8.698;2022-12-11T15:15:55;-1.00;1.00
4813;DHT22;2420;51.202;8.698;2022-12-11T15:18:35;-0.80;1.00
4813;DHT22;2420;51.202;8.698;2022-12-11T15:21:05;-0.90;1.00
4813;DHT22;2420;51.202;8.698;2022-12-11T15:26:09;-0.70;1.00
4813;DHT22;2420;51.202;8.698;2022-12-11T15:28:36;-1.10;1.00
4813;DHT22;2420;51.202;8.698;2022-12-11T15:31:19;-1.00;1.00
4813;DHT22;2420;51.202;8.698;2022-12-11T15:33:47;-1.10;1.00
4813;DHT22;2420;51.202;8.698;2022-12-11T15:36:39;-1.10;1.00
4813;DHT22;2420;51.202;8.698;2022-12-11T15:39:04;-1.10;1.00
4813;DHT22;2420;51.202;8.698;2022-12-11T15:41:32;-0.90;1.00
4813;DHT22;2420;51.202;8.698;2022-12-11T15:44:01;-1.10;1.00
4813;DHT22;2420;51.202;8.698;2022-12-11T15:46:28;-1.10;1.00
4813;DHT22;2420;51.202;8.698;2022-12-11T15:48:54;-0.90;1.00
4813;DHT22;2420;51.202;8.698;2022-12-11T15:51:20;-1.10;1.00
4813;DHT22;2420;51.202;8.698;2022-12-11T15:53:47;-1.00;1.00
4813;DHT22;2420;51.202;8.698;2022-12-11T15:56:14;-1.20;1.00
4813;DHT22;2420;51.202;8.698;2022-12-11T15:58:40;-1.10;1.00
4813;DHT22;2420;51.202;8.698;2022-12-11T16:01:07;-0.90;1.00
4813;DHT22;2420;51.202;8.698;2022-12-11T16:03:32;-1.00;1.00
4813;DHT22;2420;51.202;8.698;2022-12-11T16:05:58;-1.20;1.00
4813;DHT22;2420;51.202;8.698;2022-12-11T16:08:23;-1.10;1.00
4813;DHT22;2420;51.202;8.698;2022-12-11T16:10:52;-1.10;1.00
4813;DHT22;2420;51.202;8.698;2022-12-11T16:13:18;-0.90;1.00
4813;DHT22;2420;51.202;8.698;2022-12-11T16:15:45;-1.00;1.00
4813;DHT22;2420;51.202;8.698;2022-12-11T16:18:14;-1.10;1.00
4813;DHT22;2420;51.202;8.698;2022-12-11T16:20:40;-1.10;1.00
4813;DHT22;2420;51.202;8.698;2022-12-11T16:23:07;-1.10;1.00
4813;DHT22;2420;51.202;8.698;2022-12-11T16:25:35;-1.20;1.00
4813;DHT22;2420;51.202;8.698;2022-12-11T16:28:01;-1.10;1.00
4813;DHT22;2420;51.202;8.698;2022-12-11T16:30:27;-1.10;1.00
4813;DHT22;2420;51.202;8.698;2022-12-11T16:32:53;-1.10;1.00
4813;DHT22;2420;51.202;8.698;2022-12-11T16:35:20;-1.10;1.00
4813;DHT22;2420;51.202;8.698;2022-12-11T16:37:48;-1.00;1.00
4813;DHT22;2420;51.202;8.698;2022-12-11T16:40:15;-0.90;1.00
4813;DHT22;2420;51.202;8.698;2022-12-11T16:42:41;-1.20;1.00
4813;DHT22;2420;51.202;8.698;2022-12-11T16:45:18;-1.20;1.00
4813;DHT22;2420;51.202;8.698;2022-12-11T16:47:43;-1.20;1.00
4813;DHT22;2420;51.202;8.698;2022-12-11T16:50:10;-1.10;1.00
4813;DHT22;2420;51.202;8.698;2022-12-11T16:52:35;-1.10;1.00
4813;DHT22;2420;51.202;8.698;2022-12-11T16:55:01;-1.10;1.00
4813;DHT22;2420;51.202;8.698;2022-12-11T16:57:27;-1.00;1.00
4813;DHT22;2420;51.202;8.698;2022-12-11T16:59:52;-1.30;1.00
4813;DHT22;2420;51.202;8.698;2022-12-11T17:02:19;-1.20;1.00
4813;DHT22;2420;51.202;8.698;2022-12-11T17:04:45;-1.00;1.00
4813;DHT22;2420;51.202;8.698;2022-12-11T17:07:11;-1.20;1.00
4813;DHT22;2420;51.202;8.698;2022-12-11T17:09:37;-1.00;1.00
4813;DHT22;2420;51.202;8.698;2022-12-11T17:12:03;-0.90;1.00
4813;DHT22;2420;51.202;8.698;2022-12-11T17:14:29;-1.30;1.00
4813;DHT22;2420;51.202;8.698;2022-12-11T17:16:54;-1.10;1.00
4813;DHT22;2420;51.202;8.698;2022-12-11T17:19:21;-1.20;1.00
4813;DHT22;2420;51.202;8.698;2022-12-11T17:21:46;-1.30;1.00
4813;DHT22;2420;51.202;8.698;2022-12-11T17:24:14;-1.30;1.00
4813;DHT22;2420;51.202;8.698;2022-12-11T17:26:40;-1.10;1.00
4813;DHT22;2420;51.202;8.698;2022-12-11T17:29:05;-1.10;1.00
4813;DHT22;2420;51.202;8.698;2022-12-11T17:31:31;-1.00;1.00
4813;DHT22;2420;51.202;8.698;2022-12-11T17:33:58;-1.00;1.00
4813;DHT22;2420;51.202;8.698;2022-12-11T17:36:26;-1.20;1.00
4813;DHT22;2420;51.202;8.698;2022-12-11T17:38:52;-1.10;1.00
4813;DHT22;2420;51.202;8.698;2022-12-11T17:41:18;-1.00;1.00
4813;DHT22;2420;51.202;8.698;2022-12-11T17:43:45;-1.10;1.00
4813;DHT22;2420;51.202;8.698;2022-12-11T17:46:11;-1.20;1.00
4813;DHT22;2420;51.202;8.698;2022-12-11T17:48:37;-1.10;1.00
4813;DHT22;2420;51.202;8.698;2022-12-11T17:51:05;-1.20;1.00
4813;DHT22;2420;51.202;8.698;2022-12-11T17:53:31;-1.20;1.00
4813;DHT22;2420;51.202;8.698;2022-12-11T17:55:59;-1.00;1.00